Time;durP1;ratioP1;P1;durP2;ratioP2;P2;SDS_P1;SDS_P2;PMS_P1;PMS_P2;Temp;Humidity;BMP_temperature;BMP_pressure;BME280_temperature;BME280_humidity;BME280_pressure;Samples;Min_cycle;Max_cycle;Signal;HPM_P1;HPM_P2
2023/11/03 00:01:58;;;;;;;6.50;4.20;;;;;;;3.76;100.00;96179.09;110184;1242;59684;-69
2023/11/03 00:04:28;;;;;;;;;;;;;;;3.75;100.00;96179.88;110166;1244;72296;-69
2023/11/03 00:07:01;;;;;;;8.10;5.40;;;;;;;3.72;100.00;96174.52;110176;1242;67556;-69
2023/11/03 00:09:38;;;;;;;8.40;6.00;;;;;;;3.72;100.00;96168.05;110184;1240;69346;-69
2023/11/03 00:12:13;;;;;;;7.80;5.60;;;;;;;3.71;100.00;96160.85;110133;1242;59694;-69
2023/11/03 00:14:43;;;;;;;9.30;6.10;;;;;;;3.73;100.00;96160.23;110148;1242;59672;-69
2023/11/03 00:17:15;;;;;;;9.80;5.30;;;;;;;3.75;100.00;96150.42;110145;1242;70650;-69
2023/11/03 00:19:47;;;;;;;8.10;5.50;;;;;;;3.76;100.00;96149.11;110137;1244;69711;-69
2023/11/03 00:22:18;;;;;;;9.90;5.80;;;;;;;3.77;100.00;96146.15;110178;1245;69284;-69
2023/11/03 00:24:49;;;;;;;10.00;6.70;;;;;;;3.79;100.00;96150.83;110164;1244;59758;-68
2023/11/03 00:27:25;;;;;;;10.70;6.40;;;;;;;3.79;100.00;96150.48;110180;1242;59691;-71
2023/11/03 00:29:57;;;;;;;10.50;6.20;;;;;;;3.79;100.00;96151.54;110173;1243;69658;-70
2023/11/03 00:32:31;;;;;;;9.20;6.00;;;;;;;3.77;100.00;96154.56;110178;1243;69393;-70
2023/11/03 00:35:05;;;;;;;7.10;5.10;;;;;;;3.75;100.00;96152.45;110286;1242;69169;-71
2023/11/03 00:37:36;;;;;;;8.50;5.90;;;;;;;3.76;100.00;96150.54;110203;1242;59743;-71
2023/11/03 00:40:10;;;;;;;9.50;6.20;;;;;;;3.76;100.00;96148.98;110302;1244;59745;-70
2023/11/03 00:42:47;;;;;;;8.30;5.40;;;;;;;3.76;100.00;96151.23;110266;1244;70663;-71
2023/11/03 00:45:21;;;;;;;9.30;6.00;;;;;;;3.75;100.00;96144.77;110258;1240;68644;-71
2023/11/03 00:47:55;;;;;;;7.50;5.60;;;;;;;3.74;100.00;96146.89;110270;1240;69352;-69
2023/11/03 00:50:26;;;;;;;6.50;4.70;;;;;;;3.74;100.00;96157.56;110118;1244;60044;-69
2023/11/03 00:52:56;;;;;;;8.80;5.80;;;;;;;3.76;100.00;96158.30;110153;1240;59657;-69
2023/11/03 00:55:30;;;;;;;8.00;5.60;;;;;;;3.75;100.00;96155.90;110168;1240;71755;-70
2023/11/03 00:58:01;;;;;;;;;;;;;;;3.74;100.00;96154.64;110223;1240;69169;-71
2023/11/03 01:00:36;;;;;;;7.40;5.70;;;;;;;3.71;100.00;96152.73;110166;1240;68456;-71
2023/11/03 01:03:08;;;;;;;8.40;5.60;;;;;;;3.69;100.00;96147.20;110328;1243;60123;-70
2023/11/03 01:05:41;;;;;;;8.40;5.70;;;;;;;3.69;100.00;96149.77;110171;1244;59688;-71
2023/11/03 01:08:10;;;;;;;8.50;5.90;;;;;;;3.71;100.00;96150.37;110306;1243;71010;-71
2023/11/03 01:10:41;;;;;;;6.70;5.10;;;;;;;3.72;100.00;96154.06;110183;1243;69216;-69
2023/11/03 01:13:13;;;;;;;8.70;5.30;;;;;;;3.74;100.00;96153.41;110143;1242;69267;-69
2023/11/03 01:15:44;;;;;;;7.70;5.80;;;;;;;3.75;100.00;96149.16;110145;1242;59676;-68
2023/11/03 01:18:16;;;;;;;8.20;5.10;;;;;;;3.78;100.00;96153.80;110160;1245;59652;-70
2023/11/03 01:20:52;;;;;;;8.90;5.60;;;;;;;3.80;100.00;96148.00;110167;1240;71249;-70
2023/11/03 01:23:27;;;;;;;7.30;5.00;;;;;;;3.84;100.00;96147.21;110142;1243;68286;-69
2023/11/03 01:26:03;;;;;;;7.30;6.10;;;;;;;3.94;100.00;96144.13;110213;1243;69138;-70
2023/11/03 01:28:38;;;;;;;8.90;5.60;;;;;;;4.02;100.00;96140.36;110144;1242;59740;-69
2023/11/03 01:31:12;;;;;;;10.00;7.30;;;;;;;4.09;100.00;96137.79;110201;1244;59683;-70
2023/11/03 01:33:46;;;;;;;12.30;7.80;;;;;;;4.17;100.00;96131.57;110168;1242;71263;-70
2023/11/03 01:36:18;;;;;;;10.20;7.60;;;;;;;4.27;100.00;96130.04;110170;1241;68771;-69
2023/11/03 01:38:49;;;;;;;11.30;7.30;;;;;;;4.38;100.00;96132.44;110184;1243;69329;-69
2023/11/03 01:41:22;;;;;;;8.90;6.80;;;;;;;4.45;100.00;96133.48;110130;1242;59681;-70
2023/11/03 01:44:14;;;;;;;11.70;7.80;;;;;;;4.49;100.00;96125.63;110141;1242;59741;-69
2023/11/03 01:46:49;;;;;;;10.50;6.80;;;;;;;4.54;100.00;96112.66;110154;1244;71420;-69
2023/11/03 01:49:24;;;;;;;8.80;6.40;;;;;;;4.62;100.00;96113.15;110195;1245;69273;-68
2023/11/03 01:51:59;;;;;;;8.10;5.60;;;;;;;4.69;100.00;96118.51;110291;1240;68783;-70
2023/11/03 01:54:32;;;;;;;9.30;6.30;;;;;;;4.75;100.00;96121.19;110144;1241;60063;-69
2023/11/03 01:57:06;;;;;;;6.60;4.70;;;;;;;4.81;100.00;96111.80;110167;1240;59743;-70
2023/11/03 01:59:36;;;;;;;6.00;4.70;;;;;;;4.97;100.00;96105.48;110170;1242;71420;-71
2023/11/03 02:02:09;;;;;;;8.20;5.10;;;;;;;5.14;100.00;96107.58;110179;1244;68310;-71
2023/11/03 02:04:42;;;;;;;9.10;5.70;;;;;;;5.24;100.00;96105.30;110169;1243;69373;-71
2023/11/03 02:07:14;;;;;;;8.70;5.90;;;;;;;5.31;100.00;96106.02;110268;1242;59660;-71
2023/11/03 02:09:48;;;;;;;7.20;4.90;;;;;;;5.29;100.00;96097.67;110295;1242;59721;-71
2023/11/03 02:12:23;;;;;;;6.90;4.80;;;;;;;5.26;100.00;96094.99;110199;1242;71390;-70
2023/11/03 02:14:53;;;;;;;9.10;5.20;;;;;;;5.14;100.00;96088.27;110080;1243;69804;-70
2023/11/03 02:17:26;;;;;;;7.70;5.30;;;;;;;5.03;100.00;96082.08;110111;1240;69128;-69
2023/11/03 02:19:58;;;;;;;7.10;4.60;;;;;;;5.04;100.00;96069.59;110177;1251;59678;-69
2023/11/03 02:22:31;;;;;;;7.10;4.70;;;;;;;5.14;100.00;96067.85;110271;1242;59682;-69
2023/11/03 02:25:03;;;;;;;7.30;4.80;;;;;;;5.27;100.00;96061.55;110123;1241;70712;-69
2023/11/03 02:27:35;;;;;;;7.40;5.40;;;;;;;5.43;100.00;96051.55;110168;1242;68518;-69
2023/11/03 02:30:13;;;;;;;7.90;5.40;;;;;;;5.59;100.00;96036.91;110172;1244;69202;-72
2023/11/03 02:32:49;;;;;;;8.40;5.30;;;;;;;5.73;100.00;96023.19;110160;1243;59738;-69
2023/11/03 02:35:21;;;;;;;6.10;4.40;;;;;;;5.85;100.00;96017.84;110203;1241;59744;-70
2023/11/03 02:37:54;;;;;;;8.20;5.10;;;;;;;5.92;100.00;96022.14;110116;1243;71673;-70
2023/11/03 02:40:26;;;;;;;7.30;4.60;;;;;;;5.95;100.00;96038.91;110162;1241;69414;-70
2023/11/03 02:42:58;;;;;;;7.90;5.80;;;;;;;5.92;100.00;96040.17;110139;1251;68229;-70
2023/11/03 02:45:29;;;;;;;11.10;6.50;;;;;;;5.82;100.00;96031.84;110152;1244;59750;-70
2023/11/03 02:48:03;;;;;;;6.80;4.80;;;;;;;5.69;100.00;96021.98;110244;1241;59698;-70
2023/11/03 02:50:35;;;;;;;6.30;5.10;;;;;;;5.66;100.00;96018.59;110144;1242;70629;-70
2023/11/03 02:53:07;;;;;;;7.50;5.60;;;;;;;5.58;100.00;96011.72;110304;1240;69298;-71
2023/11/03 02:55:41;;;;;;;8.20;5.80;;;;;;;5.47;100.00;96003.37;110299;1243;68645;-70
2023/11/03 02:58:14;;;;;;;7.10;5.90;;;;;;;5.44;100.00;95997.55;110293;1242;59776;-71
2023/11/03 03:00:47;;;;;;;6.80;5.50;;;;;;;5.40;100.00;95995.77;110313;1240;59699;-71
2023/11/03 03:03:20;;;;;;;11.50;7.40;;;;;;;5.35;100.00;95992.05;110339;1242;71425;-70
2023/11/03 03:05:52;;;;;;;8.10;6.10;;;;;;;5.23;100.00;95984.63;110195;1240;69386;-71
2023/11/03 03:08:25;;;;;;;10.70;6.60;;;;;;;5.08;100.00;95986.39;110184;1243;69200;-72
2023/11/03 03:10:57;;;;;;;8.10;6.10;;;;;;;4.94;100.00;95985.73;110168;1240;59670;-71
2023/11/03 03:13:30;;;;;;;9.10;6.30;;;;;;;4.85;100.00;95984.28;110336;1243;59678;-71
2023/11/03 03:16:00;;;;;;;7.60;6.30;;;;;;;4.80;100.00;95982.96;110219;1241;70690;-71
2023/11/03 03:18:35;;;;;;;8.50;5.20;;;;;;;4.72;100.00;95984.20;110294;1243;69236;-71
2023/11/03 03:21:07;;;;;;;6.70;5.00;;;;;;;4.69;100.00;95987.52;110343;1240;69329;-71
2023/11/03 03:23:37;;;;;;;6.90;4.70;;;;;;;4.68;100.00;95989.89;110315;1242;59744;-71
2023/11/03 03:26:07;;;;;;;;;;;;;;;4.67;100.00;95994.77;110322;1240;59641;-70
2023/11/03 03:28:39;;;;;;;6.20;4.20;;;;;;;4.65;100.00;95990.04;110239;1240;70462;-71
2023/11/03 03:31:10;;;;;;;8.60;6.00;;;;;;;4.70;100.00;95988.33;110403;1243;68391;-70
2023/11/03 03:33:42;;;;;;;7.30;4.70;;;;;;;4.77;100.00;95977.98;110350;1246;68388;-70
2023/11/03 03:36:14;;;;;;;7.70;5.40;;;;;;;4.83;100.00;95971.65;110331;1246;59751;-70
2023/11/03 03:38:46;;;;;;;7.30;5.10;;;;;;;4.96;100.00;95968.34;110377;1240;59678;-71
2023/11/03 03:41:19;;;;;;;9.00;4.80;;;;;;;5.05;100.00;95968.02;110364;1241;71445;-71
2023/11/03 03:43:52;;;;;;;9.90;6.50;;;;;;;5.14;100.00;95959.90;110403;1240;69289;-71
2023/11/03 03:46:24;;;;;;;8.80;5.80;;;;;;;5.23;100.00;95954.58;110337;1240;69263;-71
2023/11/03 03:48:57;;;;;;;6.90;5.10;;;;;;;5.27;100.00;95948.23;110332;1240;59810;-70
2023/11/03 03:51:29;;;;;;;7.40;4.60;;;;;;;5.32;100.00;95944.04;110240;1244;59657;-71
2023/11/03 03:53:59;;;;;;;6.60;4.50;;;;;;;5.37;100.00;95943.66;110343;1240;70619;-71
2023/11/03 03:56:29;;;;;;;6.40;3.60;;;;;;;5.40;100.00;95942.58;110278;1240;68368;-70
2023/11/03 03:59:02;;;;;;;6.10;4.40;;;;;;;5.45;100.00;95949.80;110167;1243;68523;-70
2023/11/03 04:01:34;;;;;;;6.60;4.10;;;;;;;5.53;100.00;95949.39;110169;1242;59729;-71
2023/11/03 04:04:06;;;;;;;5.60;3.70;;;;;;;5.56;100.00;95945.88;110238;1243;59666;-71
2023/11/03 04:06:36;;;;;;;;;;;;;;;5.54;100.00;95944.78;110320;1242;71964;-71
2023/11/03 04:09:09;;;;;;;6.00;3.80;;;;;;;5.55;100.00;95941.23;110278;1242;69271;-71
2023/11/03 04:11:40;;;;;;;6.50;3.80;;;;;;;5.58;100.00;95939.51;110281;1240;69688;-70
2023/11/03 04:14:09;;;;;;;5.60;3.30;;;;;;;5.57;100.00;95936.30;110226;1242;59653;-71
2023/11/03 04:16:41;;;;;;;7.70;5.40;;;;;;;5.54;100.00;95941.16;110254;1242;59661;-70
2023/11/03 04:19:10;;;;;;;12.30;7.30;;;;;;;5.44;100.00;95939.35;110233;1240;70495;-70
2023/11/03 04:21:42;;;;;;;8.10;5.90;;;;;;;5.32;100.00;95933.66;110235;1242;69268;-71
2023/11/03 04:24:12;;;;;;;7.90;5.30;;;;;;;5.25;100.00;95934.25;110236;1240;69138;-70
2023/11/03 04:26:41;;;;;;;7.40;5.30;;;;;;;5.22;100.00;95927.70;110246;1242;59657;-70
2023/11/03 04:29:11;;;;;;;8.20;5.20;;;;;;;5.25;100.00;95933.36;110290;1241;59697;-70
2023/11/03 04:31:41;;;;;;;5.80;4.20;;;;;;;5.31;100.00;95928.77;110285;1242;71348;-70
2023/11/03 04:34:11;;;;;;;7.90;4.80;;;;;;;5.35;100.00;95922.25;110310;1243;69202;-70
2023/11/03 04:36:43;;;;;;;10.80;7.10;;;;;;;5.39;100.00;95929.38;110270;1243;69187;-69
2023/11/03 04:39:13;;;;;;;22.70;16.30;;;;;;;5.42;100.00;95932.05;110177;1244;59729;-70
2023/11/03 04:41:43;;;;;;;13.80;9.30;;;;;;;5.45;100.00;95939.45;110158;1244;59689;-69
2023/11/03 04:44:14;;;;;;;10.60;7.60;;;;;;;5.46;100.00;95936.30;110156;1243;69463;-69
2023/11/03 04:46:44;;;;;;;8.10;6.00;;;;;;;5.46;100.00;95940.62;110139;1250;69259;-69
2023/11/03 04:49:18;;;;;;;8.90;5.80;;;;;;;5.49;100.00;95942.07;110158;1241;69445;-69
2023/11/03 04:51:49;;;;;;;7.70;5.40;;;;;;;5.51;100.00;95929.83;110236;1244;59668;-69
2023/11/03 04:54:19;;;;;;;8.20;5.30;;;;;;;5.54;100.00;95931.69;110161;1243;59768;-71
2023/11/03 04:56:49;;;;;;;;;;;;;;;5.57;100.00;95932.80;110158;1245;71460;-69
2023/11/03 04:59:19;;;;;;;8.00;4.90;;;;;;;5.60;100.00;95931.08;110280;1240;68625;-69
2023/11/03 05:01:51;;;;;;;8.50;6.20;;;;;;;5.67;100.00;95919.27;110168;1246;68534;-70
2023/11/03 05:04:22;;;;;;;10.30;6.20;;;;;;;5.77;100.00;95911.47;110166;1243;59674;-69
2023/11/03 05:06:51;;;;;;;26.10;19.70;;;;;;;5.87;100.00;95900.42;110159;1242;59666;-69
2023/11/03 05:09:21;;;;;;;;;;;;;;;5.97;100.00;95898.15;110187;1243;71281;-69
2023/11/03 05:11:51;;;;;;;32.40;22.40;;;;;;;6.03;100.00;95892.31;110151;1242;69652;-70
2023/11/03 05:14:22;;;;;;;30.20;21.70;;;;;;;6.04;100.00;95897.55;110166;1244;68594;-70
2023/11/03 05:16:52;;;;;;;25.70;17.30;;;;;;;6.02;100.00;95901.04;110228;1242;59812;-70
2023/11/03 05:19:22;;;;;;;21.80;16.20;;;;;;;6.00;100.00;95900.28;110200;1242;59701;-70
2023/11/03 05:21:52;;;;;;;29.50;19.10;;;;;;;5.96;100.00;95907.52;110203;1246;71966;-70
2023/11/03 05:24:21;;;;;;;;;;;;;;;5.93;100.00;95897.48;110172;1243;68654;-70
2023/11/03 05:26:52;;;;;;;14.80;10.00;;;;;;;5.86;100.00;95892.94;110176;1242;69168;-70
2023/11/03 05:29:24;;;;;;;12.90;8.90;;;;;;;5.81;100.00;95891.78;110114;1244;59789;-70
2023/11/03 05:31:58;;;;;;;12.10;7.70;;;;;;;5.79;100.00;95905.59;110155;1240;59743;-70
2023/11/03 05:34:28;;;;;;;12.80;7.20;;;;;;;5.78;100.00;95914.14;110161;1240;71403;-70
2023/11/03 05:36:58;;;;;;;10.50;7.20;;;;;;;5.79;100.00;95917.86;110136;1243;69131;-70
2023/11/03 05:39:27;;;;;;;11.20;7.40;;;;;;;5.80;100.00;95913.75;110155;1243;68516;-70
2023/11/03 05:41:57;;;;;;;11.00;7.30;;;;;;;5.82;100.00;95920.52;110167;1241;60088;-69
2023/11/03 05:44:27;;;;;;;9.30;6.20;;;;;;;5.85;100.00;95918.77;110130;1243;59679;-70
2023/11/03 05:46:56;;;;;;;10.40;6.30;;;;;;;5.91;100.00;95908.81;110184;1240;71369;-69
2023/11/03 05:49:27;;;;;;;11.00;7.30;;;;;;;6.01;100.00;95903.35;110163;1241;68516;-71
2023/11/03 05:51:57;;;;;;;10.60;6.80;;;;;;;6.15;100.00;95885.98;110119;1242;68525;-71
2023/11/03 05:54:26;;;;;;;12.50;7.20;;;;;;;6.29;100.00;95868.97;110333;1242;59820;-72
2023/11/03 05:56:57;;;;;;;9.90;6.60;;;;;;;6.45;100.00;95869.95;110166;1242;60091;-71
2023/11/03 05:59:26;;;;;;;8.40;6.30;;;;;;;6.58;100.00;95867.48;110166;1242;71488;-70
2023/11/03 06:01:56;;;;;;;9.50;6.00;;;;;;;6.71;100.00;95864.52;110139;1242;68599;-71
2023/11/03 06:04:25;;;;;;;8.70;5.30;;;;;;;6.84;100.00;95849.61;110171;1242;69197;-71
2023/11/03 06:06:57;;;;;;;8.90;6.40;;;;;;;7.01;100.00;95837.98;110140;1242;60134;-69
2023/11/03 06:09:28;;;;;;;11.00;7.50;;;;;;;7.17;100.00;95831.77;110169;1245;59678;-70
2023/11/03 06:11:57;;;;;;;11.00;6.70;;;;;;;7.36;100.00;95828.08;110166;1246;71383;-69
2023/11/03 06:14:26;;;;;;;9.90;6.80;;;;;;;7.57;100.00;95817.67;110178;1244;69633;-71
2023/11/03 06:16:56;;;;;;;9.20;6.60;;;;;;;7.81;100.00;95802.92;110272;1245;69080;-72
2023/11/03 06:19:32;;;;;;;7.80;6.30;;;;;;;8.05;100.00;95814.70;110138;1240;59700;-70
2023/11/03 06:22:02;;;;;;;9.40;6.10;;;;;;;8.34;100.00;95825.82;110174;1243;59606;-66
2023/11/03 06:24:31;;;;;;;9.00;6.70;;;;;;;8.68;100.00;95823.31;110164;1242;70556;-69
2023/11/03 06:27:00;;;;;;;8.30;6.30;;;;;;;9.15;100.00;95804.79;110154;1244;68850;-69
2023/11/03 06:29:31;;;;;;;9.20;7.60;;;;;;;9.74;100.00;95798.35;110196;1244;69304;-70
2023/11/03 06:32:03;;;;;;;10.10;7.40;;;;;;;10.32;100.00;95805.76;110269;1246;59746;-71
2023/11/03 06:34:32;;;;;;;12.10;7.60;;;;;;;10.83;100.00;95811.56;110169;1242;59723;-71
2023/11/03 06:37:01;;;;;;;11.30;9.20;;;;;;;11.28;100.00;95804.42;110270;1242;71781;-69
2023/11/03 06:39:30;;;;;;;10.60;8.70;;;;;;;11.68;100.00;95810.27;110046;1240;68466;-70
2023/11/03 06:42:07;;;;;;;;;;;;;;;12.03;100.00;95813.52;110175;1244;69295;-70
2023/11/03 06:44:37;;;;;;;10.20;7.20;;;;;;;12.29;100.00;95814.86;110168;1242;59696;-70
2023/11/03 06:47:06;;;;;;;8.70;7.30;;;;;;;12.52;100.00;95817.48;110170;1242;59676;-70
2023/11/03 06:49:38;;;;;;;7.00;5.70;;;;;;;12.70;100.00;95814.61;110142;1244;71860;-70
2023/11/03 06:52:08;;;;;;;10.20;6.80;;;;;;;12.86;98.76;95804.52;110187;1242;68470;-69
2023/11/03 06:54:37;;;;;;;9.40;6.60;;;;;;;12.99;99.96;95799.46;110167;1240;68327;-71
2023/11/03 06:57:07;;;;;;;7.80;6.50;;;;;;;13.09;99.73;95808.56;110158;1242;59691;-71
2023/11/03 06:59:36;;;;;;;8.10;6.50;;;;;;;13.13;98.29;95811.81;110223;1242;59677;-71
2023/11/03 07:02:05;;;;;;;8.30;6.20;;;;;;;13.11;96.69;95814.30;110328;1242;70955;-69
2023/11/03 07:04:35;;;;;;;6.10;5.20;;;;;;;13.10;96.21;95807.34;110262;1241;69106;-70
2023/11/03 07:07:07;;;;;;;7.50;5.00;;;;;;;13.08;94.41;95795.23;110337;1241;69255;-69
2023/11/03 07:09:36;;;;;;;7.70;5.50;;;;;;;13.06;93.74;95797.16;110352;1241;60099;-70
2023/11/03 07:12:06;;;;;;;9.00;6.30;;;;;;;13.02;93.20;95800.92;110252;1242;59709;-70
2023/11/03 07:14:35;;;;;;;6.80;5.20;;;;;;;12.99;91.29;95785.86;110162;1240;71435;-69
2023/11/03 07:17:05;;;;;;;6.80;5.20;;;;;;;12.99;91.22;95781.30;110293;1242;69943;-69
2023/11/03 07:19:35;;;;;;;6.30;4.80;;;;;;;13.01;91.44;95777.75;110231;1239;69296;-69
2023/11/03 07:22:05;;;;;;;5.70;4.80;;;;;;;13.05;91.04;95777.45;110226;1241;59677;-70
2023/11/03 07:24:35;;;;;;;6.40;5.20;;;;;;;13.08;90.26;95784.20;110341;1241;59729;-70
2023/11/03 07:27:04;;;;;;;6.60;5.00;;;;;;;13.17;88.39;95787.17;110252;1240;71975;-70
2023/11/03 07:29:34;;;;;;;7.20;4.70;;;;;;;13.22;87.75;95783.71;110143;1242;68412;-70
2023/11/03 07:32:05;;;;;;;;;;;;;;;13.31;87.89;95785.88;110106;1241;69176;-70
2023/11/03 07:34:34;;;;;;;6.00;4.30;;;;;;;13.35;86.52;95785.49;110351;1241;59812;-70
2023/11/03 07:37:03;;;;;;;4.60;4.00;;;;;;;13.29;86.86;95783.62;110243;1240;59622;-69
2023/11/03 07:39:32;;;;;;;5.50;4.40;;;;;;;13.39;85.94;95784.33;110310;1242;71379;-68
2023/11/03 07:42:01;;;;;;;6.30;4.50;;;;;;;13.47;84.65;95792.54;110256;1241;69434;-69
2023/11/03 07:44:31;;;;;;;6.10;4.50;;;;;;;13.59;84.85;95797.04;110250;1241;69870;-70
2023/11/03 07:47:02;;;;;;;5.90;4.50;;;;;;;13.56;84.52;95801.73;110368;1241;60155;-70
2023/11/03 07:49:36;;;;;;;5.80;4.80;;;;;;;13.76;84.01;95809.58;110150;1244;59675;-69
2023/11/03 07:52:06;;;;;;;5.30;4.20;;;;;;;13.91;84.08;95814.21;110336;1241;72045;-69
2023/11/03 07:54:36;;;;;;;;;;;;;;;14.05;82.74;95804.23;110282;1241;69819;-70
2023/11/03 07:57:05;;;;;;;6.00;4.50;;;;;;;14.24;82.18;95791.25;110249;1242;69856;-69
2023/11/03 07:59:35;;;;;;;6.60;4.90;;;;;;;14.51;81.15;95798.08;110266;1241;59693;-69
2023/11/03 08:02:03;;;;;;;;;;;;;;;14.94;81.79;95799.91;110278;1241;59716;-69
2023/11/03 08:04:33;;;;;;;6.10;4.80;;;;;;;15.56;79.07;95782.02;110321;1242;71326;-69
2023/11/03 08:07:03;;;;;;;5.60;4.30;;;;;;;16.15;75.85;95774.99;110383;1241;68923;-69
2023/11/03 08:09:32;;;;;;;5.90;4.50;;;;;;;16.61;73.01;95770.01;110176;1240;68501;-70
2023/11/03 08:12:02;;;;;;;4.90;3.80;;;;;;;16.81;69.90;95775.67;110146;1243;59700;-69
2023/11/03 08:14:31;;;;;;;4.80;4.10;;;;;;;17.03;68.96;95765.71;110272;1242;59655;-69
2023/11/03 08:17:00;;;;;;;5.10;4.20;;;;;;;17.34;67.63;95763.20;110171;1244;71959;-70
2023/11/03 08:19:32;;;;;;;4.40;3.70;;;;;;;17.64;66.49;95752.85;110455;1241;68279;-68
2023/11/03 08:22:01;;;;;;;4.80;4.10;;;;;;;17.73;66.00;95754.31;110256;1241;69076;-70
2023/11/03 08:24:33;;;;;;;5.00;4.00;;;;;;;17.59;63.53;95759.50;110313;1241;59670;-70
2023/11/03 08:27:02;;;;;;;5.20;3.80;;;;;;;17.50;63.27;95761.52;110346;1241;59638;-69
2023/11/03 08:29:31;;;;;;;4.70;3.90;;;;;;;17.46;63.34;95766.45;110481;1241;71012;-68
2023/11/03 08:32:00;;;;;;;;;;;;;;;17.66;63.75;95770.79;110342;1242;69208;-69
2023/11/03 08:34:29;;;;;;;5.20;3.60;;;;;;;17.72;63.56;95780.14;110329;1239;69822;-68
2023/11/03 08:36:58;;;;;;;4.80;3.90;;;;;;;17.68;63.68;95783.73;110292;1241;59717;-71
2023/11/03 08:39:27;;;;;;;5.30;3.90;;;;;;;17.42;63.24;95787.52;110260;1244;59728;-68
2023/11/03 08:42:02;;;;;;;6.60;4.70;;;;;;;17.35;63.49;95792.30;110299;1241;70356;-68
2023/11/03 08:44:31;;;;;;;6.10;4.20;;;;;;;17.16;63.68;95794.97;110255;1241;68644;-69
2023/11/03 08:47:00;;;;;;;4.70;3.90;;;;;;;16.95;63.35;95798.30;110245;1240;69351;-70
2023/11/03 08:49:30;;;;;;;4.30;3.90;;;;;;;16.83;63.91;95794.94;110344;1241;59748;-69
2023/11/03 08:52:00;;;;;;;5.20;4.40;;;;;;;16.77;64.53;95792.27;110221;1242;59631;-70
2023/11/03 08:54:29;;;;;;;4.10;3.70;;;;;;;16.71;64.57;95789.10;110201;1242;71614;-70
2023/11/03 08:56:58;;;;;;;4.90;4.30;;;;;;;16.71;64.93;95776.02;110176;1243;68519;-70
2023/11/03 08:59:28;;;;;;;4.90;3.80;;;;;;;16.84;64.72;95759.10;110274;1244;68430;-69
2023/11/03 09:01:58;;;;;;;5.20;3.90;;;;;;;16.97;64.37;95764.29;110209;1243;59687;-71
2023/11/03 09:04:27;;;;;;;5.20;4.40;;;;;;;17.08;63.99;95768.95;110192;1239;60783;-69
2023/11/03 09:06:56;;;;;;;5.20;4.40;;;;;;;17.21;63.71;95755.77;110302;1241;71129;-70
2023/11/03 09:09:27;;;;;;;6.00;4.30;;;;;;;17.36;63.07;95753.42;110314;1243;69205;-70
2023/11/03 09:11:56;;;;;;;;;;;;;;;17.63;62.18;95744.60;110255;1241;69105;-71
2023/11/03 09:14:25;;;;;;;5.00;4.00;;;;;;;18.05;60.06;95732.27;110381;1241;59598;-68
2023/11/03 09:16:57;;;;;;;5.60;4.30;;;;;;;18.46;60.39;95734.86;110224;1242;59656;-68
2023/11/03 09:19:28;;;;;;;4.90;4.20;;;;;;;18.81;58.62;95726.40;109635;1245;717632;-68
2023/11/03 09:22:01;;;;;;;4.50;4.00;;;;;;;19.17;58.74;95719.81;110267;1241;68480;-69
2023/11/03 09:24:32;;;;;;;5.40;3.90;;;;;;;19.53;58.02;95715.17;110268;1244;69364;-69
2023/11/03 09:27:04;;;;;;;4.80;3.70;;;;;;;19.61;56.52;95704.98;110286;1242;60070;-69
2023/11/03 09:29:38;;;;;;;4.30;3.90;;;;;;;19.55;54.76;95691.70;110284;1242;59679;-68
2023/11/03 09:32:08;;;;;;;;;;;;;;;19.59;55.29;95702.70;110282;1242;71593;-69
2023/11/03 09:34:40;;;;;;;6.00;4.20;;;;;;;20.15;55.48;95703.11;110283;1241;68745;-69
2023/11/03 09:37:11;;;;;;;5.50;4.10;;;;;;;20.96;52.38;95706.94;110302;1242;69789;-69
2023/11/03 09:39:42;;;;;;;5.90;4.10;;;;;;;21.80;51.03;95710.64;110297;1241;59749;-70
2023/11/03 09:42:11;;;;;;;4.50;3.80;;;;;;;22.56;48.51;95704.66;110287;1244;59702;-69
2023/11/03 09:44:40;;;;;;;4.10;3.50;;;;;;;23.07;47.22;95689.24;110301;1242;70848;-70
2023/11/03 09:47:12;;;;;;;4.50;4.10;;;;;;;23.25;45.65;95668.05;110278;1240;69260;-68
2023/11/03 09:49:43;;;;;;;5.20;3.70;;;;;;;22.79;44.78;95646.91;110213;1242;69671;-68
2023/11/03 09:52:15;;;;;;;5.40;3.90;;;;;;;22.10;45.82;95640.66;110278;1241;59751;-69
2023/11/03 09:54:45;;;;;;;4.40;3.60;;;;;;;21.83;47.10;95640.64;110304;1243;59679;-70
2023/11/03 09:57:15;;;;;;;5.50;4.20;;;;;;;21.76;47.10;95630.44;110291;1240;71411;-70
2023/11/03 09:59:44;;;;;;;6.50;4.40;;;;;;;21.37;47.36;95615.10;110220;1239;69218;-68
2023/11/03 10:02:19;;;;;;;5.60;4.10;;;;;;;20.95;48.22;95616.13;110226;1239;69138;-69
2023/11/03 10:04:49;;;;;;;4.60;4.00;;;;;;;20.53;49.25;95622.95;110233;1245;59768;-70
2023/11/03 10:07:19;;;;;;;6.10;4.00;;;;;;;20.15;50.06;95633.30;110250;1241;59692;-69
2023/11/03 10:09:49;;;;;;;5.70;4.30;;;;;;;19.92;51.03;95634.05;110280;1241;70554;-68
2023/11/03 10:12:20;;;;;;;5.30;4.40;;;;;;;19.72;51.45;95632.33;110275;1241;69213;-70
2023/11/03 10:14:50;;;;;;;5.10;4.30;;;;;;;19.57;52.19;95631.77;110267;1240;70154;-70
2023/11/03 10:17:19;;;;;;;5.00;4.50;;;;;;;19.36;52.66;95638.23;110305;1241;59724;-68
2023/11/03 10:19:49;;;;;;;6.10;4.80;;;;;;;19.10;53.36;95630.92;110287;1242;59692;-68
2023/11/03 10:22:17;;;;;;;5.20;4.70;;;;;;;18.79;54.07;95629.40;110326;1239;71392;-70
2023/11/03 10:24:47;;;;;;;5.60;5.10;;;;;;;18.64;54.94;95625.25;110260;1242;69229;-69
2023/11/03 10:27:19;;;;;;;6.10;5.40;;;;;;;18.45;55.66;95625.98;110222;1240;68124;-68
2023/11/03 10:29:51;;;;;;;5.80;4.90;;;;;;;18.41;56.23;95624.92;110237;1241;59670;-68
2023/11/03 10:32:21;;;;;;;5.60;4.70;;;;;;;18.35;56.20;95620.77;110265;1243;59680;-69
2023/11/03 10:34:54;;;;;;;8.10;5.60;;;;;;;18.27;56.52;95617.27;110279;1239;70612;-68
2023/11/03 10:37:23;;;;;;;5.80;5.00;;;;;;;18.12;57.28;95608.67;110296;1242;68442;-69
2023/11/03 10:39:52;;;;;;;7.40;5.40;;;;;;;18.07;57.54;95600.95;110287;1247;69874;-69
2023/11/03 10:42:24;;;;;;;5.20;4.50;;;;;;;18.04;57.95;95601.38;110282;1249;59712;-69
2023/11/03 10:44:58;;;;;;;6.30;4.70;;;;;;;18.04;58.63;95611.15;110259;1241;59605;-69
2023/11/03 10:47:31;;;;;;;6.00;4.80;;;;;;;18.04;58.69;95614.68;110291;1241;70607;-70
2023/11/03 10:50:09;;;;;;;6.60;4.80;;;;;;;18.09;58.79;95607.29;110281;1241;69754;-69
2023/11/03 10:52:44;;;;;;;6.10;4.40;;;;;;;18.18;58.90;95601.39;110235;1242;69382;-68
2023/11/03 10:55:17;;;;;;;6.40;5.00;;;;;;;18.25;58.70;95594.89;110245;1242;59737;-69
2023/11/03 10:57:46;;;;;;;5.30;4.30;;;;;;;18.37;58.51;95593.71;110269;1242;59715;-69
2023/11/03 11:00:31;;;;;;;8.70;5.20;;;;;;;18.59;58.37;95591.16;110230;1242;71393;-69
2023/11/03 11:03:19;;;;;;;6.10;4.80;;;;;;;19.05;57.46;95588.17;110321;1241;68458;-69
2023/11/03 11:05:59;;;;;;;5.90;4.80;;;;;;;19.52;55.93;95578.89;110328;1242;67572;-68
2023/11/03 11:08:32;;;;;;;6.40;5.10;;;;;;;19.96;54.91;95560.44;110238;1242;59736;-68
2023/11/03 11:11:02;;;;;;;6.00;5.10;;;;;;;20.31;53.61;95557.02;110260;1242;59760;-70
2023/11/03 11:13:35;;;;;;;4.60;4.10;;;;;;;20.54;53.23;95560.63;110247;1241;71369;-69
2023/11/03 11:16:05;;;;;;;5.80;4.90;;;;;;;20.83;52.33;95566.44;110264;1241;68303;-68
2023/11/03 11:18:42;;;;;;;5.80;4.90;;;;;;;20.82;50.84;95560.70;110232;1242;69840;-68
2023/11/03 11:21:14;;;;;;;6.90;5.00;;;;;;;20.66;51.34;95547.67;110225;1242;59743;-68
2023/11/03 11:23:47;;;;;;;8.60;4.90;;;;;;;20.57;51.32;95537.10;110264;1242;59694;-70
2023/11/03 11:26:20;;;;;;;6.40;4.90;;;;;;;20.42;51.53;95537.19;110244;1239;71429;-69
2023/11/03 11:29:03;;;;;;;6.40;5.40;;;;;;;20.24;51.87;95534.55;110264;1244;70039;-69
2023/11/03 11:31:36;;;;;;;;;;;;;;;20.02;52.04;95549.41;110257;1246;69386;-68
2023/11/03 11:34:14;;;;;;;5.90;5.30;;;;;;;19.81;52.62;95540.91;110271;1240;59670;-69
2023/11/03 11:36:47;;;;;;;6.20;5.60;;;;;;;19.52;53.02;95549.42;110244;1245;60012;-68
2023/11/03 11:39:19;;;;;;;5.90;5.30;;;;;;;19.46;53.44;95550.68;110317;1240;71369;-69
2023/11/03 11:41:51;;;;;;;6.80;5.60;;;;;;;19.38;53.91;95542.48;110301;1241;67665;-67
2023/11/03 11:44:30;;;;;;;7.30;5.10;;;;;;;19.25;54.16;95536.88;110188;1243;69686;-69
2023/11/03 11:47:03;;;;;;;;;;;;;;;18.96;54.89;95527.75;110171;1242;59664;-69